Time;durP1;ratioP1;P1;durP2;ratioP2;P2;SDS_P1;SDS_P2;PMS_P1;PMS_P2;Temp;Humidity;BMP_temperature;BMP_pressure;BME280_temperature;BME280_humidity;BME280_pressure;Samples;Min_cycle;Max_cycle;Signal;HPM_P1;HPM_P2
2022/06/10 00:00:13;;;;;;;;;;;14.10;99.90;;;;;;5083401;27;37816;-57
2022/06/10 00:02:43;;;;;;;;;;;14.10;99.90;;;;;;5083933;27;37885;-57
2022/06/10 00:05:10;;;;;;;;;;;14.10;99.90;;;;;;5085643;27;37288;-57
2022/06/10 00:07:38;;;;;;;;;;;14.10;99.90;;;;;;5082188;27;39712;-57
2022/06/10 00:10:05;;;;;;;;;;;14.10;99.90;;;;;;5079113;27;36676;-57
2022/06/10 00:12:32;;;;;;;;;;;14.10;99.90;;;;;;5080285;27;37965;-56
2022/06/10 00:14:59;;;;;;;;;;;14.10;99.90;;;;;;5082258;27;39223;-57
2022/06/10 00:17:28;;;;;;;;;;;14.10;99.90;;;;;;5082332;27;38313;-57
2022/06/10 00:19:55;;;;;;;;;;;14.10;99.90;;;;;;5082941;27;38548;-57
2022/06/10 00:22:22;;;;;;;;;;;14.10;99.90;;;;;;5085458;27;37481;-57
2022/06/10 00:24:51;;;;;;;;;;;14.10;99.90;;;;;;5082988;27;35745;-57
2022/06/10 00:27:18;;;;;;;;;;;14.00;99.90;;;;;;5082902;28;36615;-56
2022/06/10 00:29:45;;;;;;;;;;;14.10;99.90;;;;;;5084218;27;37940;-57
2022/06/10 00:32:12;;;;;;;;;;;14.00;99.90;;;;;;5085242;27;36935;-57
2022/06/10 00:34:40;;;;;;;;;;;14.00;99.90;;;;;;5086953;27;36224;-57
2022/06/10 00:37:07;;;;;;;;;;;14.10;99.90;;;;;;5084660;27;37534;-57
2022/06/10 00:39:34;;;;;;;;;;;14.00;99.90;;;;;;5086001;27;36746;-57
2022/06/10 00:42:03;;;;;;;;;;;14.00;99.90;;;;;;5086099;27;37111;-57
2022/06/10 00:44:30;;;;;;;;;;;14.00;99.90;;;;;;5083936;27;36552;-56
2022/06/10 00:46:58;;;;;;;;;;;14.00;99.90;;;;;;5084443;27;39637;-57
2022/06/10 00:49:25;;;;;;;;;;;14.00;99.90;;;;;;5084776;27;40499;-57
2022/06/10 00:51:54;;;;;;;;;;;13.90;99.90;;;;;;5084483;28;37520;-57
2022/06/10 00:54:24;;;;;;;;;;;13.90;99.90;;;;;;5085134;27;39420;-57
2022/06/10 00:56:52;;;;;;;;;;;13.90;99.90;;;;;;5085214;27;39533;-57
2022/06/10 00:59:22;;;;;;;;;;;13.90;99.90;;;;;;5081822;27;38299;-57
2022/06/10 01:01:51;;;;;;;;;;;13.80;99.90;;;;;;5082435;27;37080;-57
2022/06/10 01:04:19;;;;;;;;;;;13.90;99.90;;;;;;5080214;27;36489;-57
2022/06/10 01:06:45;;;;;;;;;;;13.90;99.90;;;;;;5081628;27;38054;-57
2022/06/10 01:09:14;;;;;;;;;;;13.90;99.90;;;;;;5085578;27;38903;-57
2022/06/10 01:11:46;;;;;;;;;;;13.90;99.90;;;;;;5081786;27;36322;-57
2022/06/10 01:14:20;;;;;;;;;;;13.80;99.90;;;;;;5083292;27;36252;-57
2022/06/10 01:16:50;;;;;;;;;;;13.90;99.90;;;;;;5084134;27;37622;-56
2022/06/10 01:19:32;;;;;;;;;;;13.90;99.90;;;;;;5083469;27;38272;-57
2022/06/10 01:22:21;;;;;;;;;;;13.80;99.90;;;;;;5083409;27;38652;-57
2022/06/10 01:24:58;;;;;;;;;;;13.80;99.90;;;;;;5085129;27;36226;-57
2022/06/10 01:27:48;;;;;;;;;;;13.80;99.90;;;;;;5083334;27;36712;-57
2022/06/10 01:30:19;;;;;;;;;;;13.80;99.90;;;;;;5085558;27;38345;-57
2022/06/10 01:32:52;;;;;;;;;;;13.80;99.90;;;;;;5084703;27;38744;-57
2022/06/10 01:35:24;;;;;;;;;;;13.80;99.90;;;;;;5083441;27;38520;-57
2022/06/10 01:37:56;;;;;;;;;;;13.80;99.90;;;;;;5084205;28;37386;-57
2022/06/10 01:40:26;;;;;;;;;;;13.80;99.90;;;;;;5083874;27;37679;-57
2022/06/10 01:42:57;;;;;;;;;;;13.80;99.90;;;;;;5083423;27;39739;-58
2022/06/10 01:45:30;;;;;;;;;;;13.80;99.90;;;;;;5084269;27;35085;-57
2022/06/10 01:48:01;;;;;;;;;;;13.80;99.90;;;;;;5084385;27;37783;-57
2022/06/10 01:50:33;;;;;;;;;;;13.80;99.90;;;;;;5083226;27;39782;-57
2022/06/10 01:53:03;;;;;;;;;;;13.80;99.90;;;;;;5082536;27;38178;-57
2022/06/10 01:55:32;;;;;;;;;;;13.80;99.90;;;;;;5082205;27;36275;-57
2022/06/10 01:58:04;;;;;;;;;;;13.80;99.90;;;;;;5085321;27;39034;-57
2022/06/10 02:00:32;;;;;;;;;;;13.70;99.90;;;;;;5084709;27;38858;-57
2022/06/10 02:03:04;;;;;;;;;;;13.70;99.90;;;;;;5083972;27;38071;-57
2022/06/10 02:05:36;;;;;;;;;;;13.70;99.90;;;;;;5082323;27;36443;-57
2022/06/10 02:08:06;;;;;;;;;;;13.70;99.90;;;;;;5083803;27;37627;-57
2022/06/10 02:10:36;;;;;;;;;;;13.70;99.90;;;;;;5081176;27;36564;-57
2022/06/10 02:13:06;;;;;;;;;;;13.60;99.90;;;;;;5083646;27;38292;-57
2022/06/10 02:15:35;;;;;;;;;;;13.70;99.90;;;;;;5084104;27;36085;-57
2022/06/10 02:18:07;;;;;;;;;;;13.70;99.90;;;;;;5084292;27;38801;-57
2022/06/10 02:20:36;;;;;;;;;;;13.60;99.90;;;;;;5084110;27;38417;-57
2022/06/10 02:23:05;;;;;;;;;;;13.70;99.90;;;;;;5082956;27;37092;-57
2022/06/10 02:25:35;;;;;;;;;;;13.70;99.90;;;;;;5085041;27;37708;-57
2022/06/10 02:28:05;;;;;;;;;;;13.70;99.90;;;;;;5084320;27;37657;-57
2022/06/10 02:30:34;;;;;;;;;;;13.60;99.90;;;;;;5084140;28;36595;-57
2022/06/10 02:33:02;;;;;;;;;;;13.60;99.90;;;;;;5083786;27;37184;-58
2022/06/10 02:35:35;;;;;;;;;;;13.60;99.90;;;;;;5083122;27;38649;-58
2022/06/10 02:38:09;;;;;;;;;;;13.60;99.90;;;;;;5083272;27;38293;-58
2022/06/10 02:40:41;;;;;;;;;;;13.60;99.90;;;;;;5082514;27;39445;-57
2022/06/10 02:43:09;;;;;;;;;;;13.60;99.90;;;;;;5081423;27;37093;-56
2022/06/10 02:45:41;;;;;;;;;;;13.60;99.90;;;;;;5080661;27;36161;-57
2022/06/10 02:48:11;;;;;;;;;;;13.60;99.90;;;;;;5080345;27;37901;-58
2022/06/10 02:50:40;;;;;;;;;;;13.60;99.90;;;;;;5082251;27;37418;-56
2022/06/10 02:53:07;;;;;;;;;;;13.60;99.90;;;;;;5081967;28;38753;-57
2022/06/10 02:55:35;;;;;;;;;;;13.60;99.90;;;;;;5081346;27;36612;-57
2022/06/10 03:03:43;;;;;;;;;;;13.60;99.90;;;;;;5083187;28;37237;-56
2022/06/10 03:06:16;;;;;;;;;;;13.60;99.90;;;;;;5083083;27;36155;-57
2022/06/10 03:08:46;;;;;;;;;;;13.60;99.90;;;;;;5084895;27;37742;-57
2022/06/10 03:11:16;;;;;;;;;;;13.50;99.90;;;;;;5081735;27;39022;-57
2022/06/10 03:13:56;;;;;;;;;;;13.60;99.90;;;;;;5083330;27;36106;-57
2022/06/10 03:16:31;;;;;;;;;;;13.50;99.90;;;;;;5083463;27;36428;-57
2022/06/10 03:19:03;;;;;;;;;;;13.50;99.90;;;;;;5083646;27;37477;-57
2022/06/10 03:21:38;;;;;;;;;;;13.50;99.90;;;;;;5083404;27;38827;-58
2022/06/10 03:24:09;;;;;;;;;;;13.50;99.90;;;;;;5081747;27;37843;-56
2022/06/10 03:26:42;;;;;;;;;;;13.50;99.90;;;;;;5082506;27;36586;-57
2022/06/10 03:29:13;;;;;;;;;;;13.50;99.90;;;;;;5084753;27;38892;-57
2022/06/10 03:31:41;;;;;;;;;;;13.50;99.90;;;;;;5085843;28;36672;-57
2022/06/10 03:34:14;;;;;;;;;;;13.50;99.90;;;;;;5084813;27;37037;-57
2022/06/10 03:36:43;;;;;;;;;;;13.50;99.90;;;;;;5087141;27;36624;-56
2022/06/10 03:39:10;;;;;;;;;;;13.50;99.90;;;;;;5085981;27;37795;-57
2022/06/10 03:41:41;;;;;;;;;;;13.50;99.90;;;;;;5085532;27;38158;-56
2022/06/10 03:44:12;;;;;;;;;;;13.50;99.90;;;;;;5086794;27;36098;-57
2022/06/10 03:46:39;;;;;;;;;;;13.50;99.90;;;;;;5084891;27;37534;-57
2022/06/10 03:49:09;;;;;;;;;;;13.60;99.90;;;;;;5086280;27;37425;-57
2022/06/10 03:51:36;;;;;;;;;;;13.60;99.90;;;;;;5087450;28;37574;-57
2022/06/10 03:54:05;;;;;;;;;;;13.70;99.90;;;;;;5085713;27;37730;-56
2022/06/10 03:56:35;;;;;;;;;;;13.70;99.90;;;;;;5086228;27;36519;-57
2022/06/10 03:59:02;;;;;;;;;;;13.80;99.90;;;;;;5085843;28;37487;-56
2022/06/10 04:01:30;;;;;;;;;;;13.90;99.90;;;;;;5084688;27;37251;-57
2022/06/10 04:03:57;;;;;;;;;;;13.90;99.90;;;;;;5086384;27;37348;-57
2022/06/10 04:06:24;;;;;;;;;;;14.00;99.90;;;;;;5085309;27;37582;-57
2022/06/10 04:08:51;;;;;;;;;;;14.20;99.90;;;;;;5086104;27;37998;-57
2022/06/10 04:11:20;;;;;;;;;;;14.20;99.90;;;;;;5086893;27;36793;-57
2022/06/10 04:13:47;;;;;;;;;;;14.30;99.90;;;;;;5085379;27;35406;-57
2022/06/10 04:16:14;;;;;;;;;;;14.40;99.90;;;;;;5085335;27;36289;-56
2022/06/10 04:18:41;;;;;;;;;;;14.40;99.90;;;;;;5085612;28;36539;-57
2022/06/10 04:21:08;;;;;;;;;;;14.50;99.90;;;;;;5086206;27;39034;-57
2022/06/10 04:23:35;;;;;;;;;;;14.60;99.90;;;;;;5083980;27;37568;-57
2022/06/10 04:26:02;;;;;;;;;;;14.70;99.90;;;;;;5084334;27;36151;-57
2022/06/10 04:28:31;;;;;;;;;;;14.80;99.90;;;;;;5084914;27;40262;-58
2022/06/10 04:30:58;;;;;;;;;;;14.90;99.90;;;;;;5084469;27;38183;-57
2022/06/10 04:33:25;;;;;;;;;;;15.10;99.90;;;;;;5084924;27;35959;-57
2022/06/10 04:35:52;;;;;;;;;;;15.20;99.90;;;;;;5084237;27;36139;-57
2022/06/10 04:38:20;;;;;;;;;;;15.30;99.90;;;;;;5083620;27;36682;-58
2022/06/10 04:40:48;;;;;;;;;;;15.40;99.90;;;;;;5085060;27;36511;-57
2022/06/10 04:43:15;;;;;;;;;;;15.50;99.90;;;;;;5085354;27;37461;-58
2022/06/10 04:45:45;;;;;;;;;;;15.60;99.90;;;;;;5085000;27;36438;-58
2022/06/10 04:48:12;;;;;;;;;;;15.70;99.90;;;;;;5085243;27;37615;-58
2022/06/10 04:50:41;;;;;;;;;;;15.80;99.90;;;;;;5086333;27;38099;-58
2022/06/10 04:53:08;;;;;;;;;;;15.90;99.90;;;;;;5085552;27;38117;-58
2022/06/10 04:55:35;;;;;;;;;;;15.90;99.90;;;;;;5086617;27;35918;-57
2022/06/10 04:58:02;;;;;;;;;;;16.00;99.90;;;;;;5086523;27;37843;-57
2022/06/10 05:00:31;;;;;;;;;;;16.00;99.90;;;;;;5082830;27;39434;-58
2022/06/10 05:03:02;;;;;;;;;;;16.00;99.90;;;;;;5085350;27;38081;-57
2022/06/10 05:05:29;;;;;;;;;;;15.90;99.90;;;;;;5083207;27;36582;-57
2022/06/10 05:07:57;;;;;;;;;;;15.80;99.90;;;;;;5084895;27;41241;-57
2022/06/10 05:10:24;;;;;;;;;;;15.70;99.90;;;;;;5084292;27;36672;-58
2022/06/10 05:12:51;;;;;;;;;;;15.70;99.90;;;;;;5084431;27;37062;-57
2022/06/10 05:15:20;;;;;;;;;;;15.60;99.90;;;;;;5084542;27;35291;-57
2022/06/10 05:17:47;;;;;;;;;;;15.60;99.90;;;;;;5082141;27;39004;-58
2022/06/10 05:20:17;;;;;;;;;;;15.60;99.90;;;;;;5083530;27;37295;-57
2022/06/10 05:22:44;;;;;;;;;;;15.50;99.90;;;;;;5083768;27;39602;-58
2022/06/10 05:25:11;;;;;;;;;;;15.50;99.90;;;;;;5085833;27;38510;-57
2022/06/10 05:27:38;;;;;;;;;;;15.50;99.90;;;;;;5085807;27;37736;-57
2022/06/10 05:30:06;;;;;;;;;;;15.50;99.90;;;;;;5085036;27;37680;-57
2022/06/10 05:32:33;;;;;;;;;;;15.50;99.90;;;;;;5083547;28;37487;-58
2022/06/10 05:35:00;;;;;;;;;;;15.50;99.90;;;;;;5083970;27;36723;-58
2022/06/10 05:37:28;;;;;;;;;;;15.50;99.90;;;;;;5082682;27;40219;-57
2022/06/10 05:39:56;;;;;;;;;;;15.50;99.90;;;;;;5085255;27;37277;-57
2022/06/10 05:42:23;;;;;;;;;;;15.50;99.90;;;;;;5085597;27;37705;-57
2022/06/10 05:44:51;;;;;;;;;;;15.50;99.90;;;;;;5084469;28;35029;-58
2022/06/10 05:47:19;;;;;;;;;;;15.50;99.90;;;;;;5083329;27;38015;-57
2022/06/10 05:49:48;;;;;;;;;;;15.50;99.90;;;;;;5082203;27;37341;-57
2022/06/10 05:52:16;;;;;;;;;;;15.60;99.90;;;;;;5085573;27;36569;-58
2022/06/10 05:54:46;;;;;;;;;;;15.70;99.90;;;;;;5082598;27;36502;-57
2022/06/10 05:57:14;;;;;;;;;;;15.70;99.90;;;;;;5083045;27;37726;-57
2022/06/10 05:59:41;;;;;;;;;;;15.70;99.90;;;;;;5083263;27;36938;-57
2022/06/10 06:02:13;;;;;;;;;;;15.70;99.90;;;;;;5084663;27;37805;-57
2022/06/10 06:04:40;;;;;;;;;;;15.80;99.90;;;;;;5084152;27;37338;-56
2022/06/10 06:07:07;;;;;;;;;;;15.80;99.90;;;;;;5084820;27;38690;-57
2022/06/10 06:09:34;;;;;;;;;;;15.90;99.90;;;;;;5083449;27;38058;-57
2022/06/10 06:12:03;;;;;;;;;;;16.00;99.90;;;;;;5084923;27;38200;-57
2022/06/10 06:14:31;;;;;;;;;;;16.10;99.90;;;;;;5084312;27;37056;-57
2022/06/10 06:16:59;;;;;;;;;;;16.10;99.90;;;;;;5083054;27;37745;-57
2022/06/10 06:19:27;;;;;;;;;;;16.20;99.90;;;;;;5085494;27;36709;-55
2022/06/10 06:21:54;;;;;;;;;;;16.20;99.90;;;;;;5083760;27;35858;-57
2022/06/10 06:24:22;;;;;;;;;;;16.20;99.90;;;;;;5082335;27;37916;-57
2022/06/10 06:26:49;;;;;;;;;;;16.20;99.90;;;;;;5082489;27;36569;-57
2022/06/10 06:29:17;;;;;;;;;;;16.20;99.90;;;;;;5080682;27;37502;-57
2022/06/10 06:31:44;;;;;;;;;;;16.10;99.90;;;;;;5083722;27;37056;-57
2022/06/10 06:34:12;;;;;;;;;;;16.10;99.90;;;;;;5082246;27;36185;-57
2022/06/10 06:36:42;;;;;;;;;;;16.10;99.90;;;;;;5084329;27;38505;-57
2022/06/10 06:39:09;;;;;;;;;;;16.00;99.90;;;;;;5083344;27;38161;-56
2022/06/10 06:41:36;;;;;;;;;;;16.00;99.90;;;;;;5084889;28;38441;-57
2022/06/10 06:44:05;;;;;;;;;;;16.00;99.90;;;;;;5084789;27;36188;-57
2022/06/10 06:46:34;;;;;;;;;;;16.00;99.90;;;;;;5084312;27;37951;-57
2022/06/10 06:49:01;;;;;;;;;;;16.00;99.90;;;;;;5084324;27;37736;-56
2022/06/10 06:51:29;;;;;;;;;;;16.10;99.90;;;;;;5083825;27;37791;-57
2022/06/10 06:53:57;;;;;;;;;;;16.20;99.90;;;;;;5083116;27;38908;-56
2022/06/10 06:56:24;;;;;;;;;;;16.20;99.90;;;;;;5081604;27;40042;-56
2022/06/10 06:58:51;;;;;;;;;;;16.30;99.90;;;;;;5079865;27;38580;-56
2022/06/10 07:01:19;;;;;;;;;;;16.30;99.90;;;;;;5083986;27;36886;-56
2022/06/10 07:03:47;;;;;;;;;;;16.40;99.90;;;;;;5087562;27;38279;-57
2022/06/10 07:06:14;;;;;;;;;;;16.50;99.90;;;;;;5087805;27;39645;-57
2022/06/10 07:08:41;;;;;;;;;;;16.60;99.90;;;;;;5085743;27;38251;-57
2022/06/10 07:11:09;;;;;;;;;;;16.60;99.90;;;;;;5085363;27;39034;-56
2022/06/10 07:13:37;;;;;;;;;;;16.70;99.90;;;;;;5086048;27;35068;-57
2022/06/10 07:16:05;;;;;;;;;;;16.70;99.90;;;;;;5087640;27;37461;-57
2022/06/10 07:18:33;;;;;;;;;;;16.70;99.90;;;;;;5087439;27;39932;-57
2022/06/10 07:21:02;;;;;;;;;;;16.70;99.90;;;;;;5087936;27;39173;-57
2022/06/10 07:23:29;;;;;;;;;;;16.70;99.90;;;;;;5087310;27;36163;-57
2022/06/10 07:25:56;;;;;;;;;;;16.60;99.90;;;;;;5088205;27;37573;-57
2022/06/10 07:28:23;;;;;;;;;;;16.70;99.90;;;;;;5088237;27;37199;-57
2022/06/10 07:30:50;;;;;;;;;;;16.60;99.90;;;;;;5086490;27;37880;-57
2022/06/10 07:33:17;;;;;;;;;;;16.60;99.90;;;;;;5087048;27;36990;-57
2022/06/10 07:35:45;;;;;;;;;;;16.70;99.90;;;;;;5087219;27;38228;-57
2022/06/10 07:38:14;;;;;;;;;;;16.70;99.90;;;;;;5087714;27;36622;-57
2022/06/10 07:43:27;;;;;;;;;;;16.80;99.90;;;;;;5086772;28;37895;-57
2022/06/10 07:45:55;;;;;;;;;;;16.90;99.90;;;;;;5087370;27;37985;-57
2022/06/10 07:48:22;;;;;;;;;;;16.90;99.90;;;;;;5085961;27;40004;-56
2022/06/10 07:50:49;;;;;;;;;;;16.90;99.90;;;;;;5087400;27;36004;-57
2022/06/10 07:53:19;;;;;;;;;;;16.90;99.90;;;;;;5084709;27;35471;-56
2022/06/10 07:55:47;;;;;;;;;;;17.00;99.90;;;;;;5085670;27;37317;-56
2022/06/10 07:58:15;;;;;;;;;;;17.00;99.90;;;;;;5085515;27;39492;-57
2022/06/10 08:00:42;;;;;;;;;;;17.00;99.90;;;;;;5086132;28;38131;-56
2022/06/10 08:03:09;;;;;;;;;;;17.00;99.90;;;;;;5085587;27;35198;-57
2022/06/10 08:05:37;;;;;;;;;;;17.10;99.90;;;;;;5084664;27;38239;-56
2022/06/10 08:08:04;;;;;;;;;;;17.10;99.90;;;;;;5085382;27;38080;-57
2022/06/10 08:10:34;;;;;;;;;;;17.10;99.90;;;;;;5085316;28;35838;-57
2022/06/10 08:13:01;;;;;;;;;;;17.10;99.90;;;;;;5085660;27;37283;-56
2022/06/10 08:15:28;;;;;;;;;;;17.10;99.90;;;;;;5085320;27;37675;-56
2022/06/10 08:17:56;;;;;;;;;;;17.20;99.90;;;;;;5085820;27;40331;-57
2022/06/10 08:22:32;;;;;;;;;;;17.20;99.90;;;;;;5084013;27;37730;-57
2022/06/10 08:23:11;;;;;;;;;;;17.20;99.90;;;;;;5082947;28;36905;-57
2022/06/10 08:25:39;;;;;;;;;;;17.30;99.90;;;;;;5086357;27;38042;-57
2022/06/10 08:28:06;;;;;;;;;;;17.20;99.90;;;;;;5086274;27;36537;-57
2022/06/10 08:30:33;;;;;;;;;;;17.20;99.90;;;;;;5086616;27;37673;-56
2022/06/10 08:33:03;;;;;;;;;;;17.20;99.90;;;;;;5086398;27;36144;-56
2022/06/10 08:35:30;;;;;;;;;;;17.20;99.90;;;;;;5083592;27;38501;-56
2022/06/10 08:37:57;;;;;;;;;;;17.20;99.90;;;;;;5083543;27;36608;-57
2022/06/10 08:40:28;;;;;;;;;;;17.30;99.90;;;;;;5085036;27;37799;-57
2022/06/10 08:43:01;;;;;;;;;;;17.40;99.90;;;;;;5086889;27;39359;-57
2022/06/10 08:45:31;;;;;;;;;;;17.40;99.90;;;;;;5085792;27;36711;-57
2022/06/10 08:48:07;;;;;;;;;;;17.40;99.90;;;;;;5085115;27;38930;-56
2022/06/10 08:50:39;;;;;;;;;;;17.40;99.90;;;;;;5085633;27;36959;-57
2022/06/10 08:53:12;;;;;;;;;;;17.30;99.90;;;;;;5084702;27;36055;-56
2022/06/10 08:55:45;;;;;;;;;;;17.30;99.90;;;;;;5085554;27;38488;-57
2022/06/10 08:58:17;;;;;;;;;;;17.30;99.90;;;;;;5085373;27;36586;-57
2022/06/10 09:00:45;;;;;;;;;;;17.30;99.90;;;;;;5085248;27;38053;-57
2022/06/10 09:03:14;;;;;;;;;;;17.30;99.90;;;;;;5085173;27;35178;-57
2022/06/10 09:05:45;;;;;;;;;;;17.40;99.90;;;;;;5084877;27;38697;-56
2022/06/10 09:08:14;;;;;;;;;;;17.40;99.90;;;;;;5085095;27;36641;-57
2022/06/10 09:10:43;;;;;;;;;;;17.40;99.90;;;;;;5085584;27;36907;-57
2022/06/10 09:13:16;;;;;;;;;;;17.50;99.90;;;;;;5085482;27;36237;-57
2022/06/10 09:15:47;;;;;;;;;;;17.50;99.90;;;;;;5085282;27;37136;-57
2022/06/10 09:18:20;;;;;;;;;;;17.50;99.90;;;;;;5084431;28;40039;-56
2022/06/10 09:20:51;;;;;;;;;;;17.40;99.90;;;;;;5085373;27;37805;-57
2022/06/10 09:23:20;;;;;;;;;;;17.40;99.90;;;;;;5085046;27;36042;-57
2022/06/10 09:25:48;;;;;;;;;;;17.40;99.90;;;;;;5086218;27;36627;-57
2022/06/10 09:28:18;;;;;;;;;;;17.40;99.90;;;;;;5085415;27;36674;-56
2022/06/10 09:30:48;;;;;;;;;;;17.30;99.90;;;;;;5085659;27;37526;-57
2022/06/10 09:33:19;;;;;;;;;;;17.30;99.90;;;;;;5085014;27;36637;-57
2022/06/10 09:35:51;;;;;;;;;;;17.30;99.90;;;;;;5084421;28;37848;-57
2022/06/10 09:38:23;;;;;;;;;;;17.20;99.90;;;;;;5085250;27;37740;-57
2022/06/10 09:40:52;;;;;;;;;;;17.20;99.90;;;;;;5085024;27;36524;-57
2022/06/10 09:43:43;;;;;;;;;;;17.20;99.90;;;;;;5085914;27;35672;-57
2022/06/10 09:46:18;;;;;;;;;;;17.20;99.90;;;;;;5085266;27;37975;-56
2022/06/10 09:48:50;;;;;;;;;;;17.30;99.90;;;;;;5082205;27;37185;-57
2022/06/10 09:51:21;;;;;;;;;;;17.30;99.90;;;;;;5085449;28;37046;-57
2022/06/10 09:53:55;;;;;;;;;;;17.40;99.90;;;;;;5085498;28;36850;-57
2022/06/10 09:56:31;;;;;;;;;;;17.40;99.90;;;;;;5085383;27;30890;-57
2022/06/10 09:59:03;;;;;;;;;;;17.40;99.90;;;;;;5085755;27;36713;-57
2022/06/10 10:01:37;;;;;;;;;;;17.50;99.90;;;;;;5084876;27;37000;-57
2022/06/10 10:04:18;;;;;;;;;;;17.50;99.90;;;;;;5084998;27;35809;-58
2022/06/10 10:06:49;;;;;;;;;;;17.60;99.90;;;;;;5084135;27;37589;-57
2022/06/10 10:09:22;;;;;;;;;;;17.60;99.90;;;;;;5081249;27;37984;-57
2022/06/10 10:11:54;;;;;;;;;;;17.60;99.90;;;;;;5083732;27;37114;-57
2022/06/10 10:14:26;;;;;;;;;;;17.60;99.90;;;;;;5084035;27;36274;-57
2022/06/10 10:17:00;;;;;;;;;;;17.60;99.90;;;;;;5084381;27;39336;-57
2022/06/10 10:19:34;;;;;;;;;;;17.60;99.90;;;;;;5083369;28;37978;-57
2022/06/10 10:22:06;;;;;;;;;;;17.60;99.90;;;;;;5084448;27;37911;-57
2022/06/10 10:24:34;;;;;;;;;;;17.70;99.90;;;;;;5085134;27;37335;-57
2022/06/10 10:27:01;;;;;;;;;;;17.80;99.90;;;;;;5085998;28;39226;-57
2022/06/10 10:29:34;;;;;;;;;;;17.90;99.90;;;;;;5084282;27;36731;-57
2022/06/10 10:32:05;;;;;;;;;;;18.00;99.90;;;;;;5084184;27;38096;-57
2022/06/10 10:34:36;;;;;;;;;;;18.00;99.90;;;;;;5083337;27;35227;-57
2022/06/10 10:37:04;;;;;;;;;;;18.00;99.90;;;;;;5086584;27;36457;-57
2022/06/10 10:39:33;;;;;;;;;;;18.10;99.90;;;;;;5087132;27;37958;-57
2022/06/10 10:42:01;;;;;;;;;;;18.10;99.90;;;;;;5088350;27;35972;-57
2022/06/10 10:44:34;;;;;;;;;;;18.10;99.90;;;;;;5087134;27;35049;-56
2022/06/10 10:47:14;;;;;;;;;;;18.10;99.90;;;;;;5086571;27;37469;-57
2022/06/10 10:49:44;;;;;;;;;;;18.10;99.90;;;;;;5087333;27;37740;-57
2022/06/10 10:52:16;;;;;;;;;;;18.00;99.90;;;;;;5086646;27;38039;-57
2022/06/10 10:54:44;;;;;;;;;;;18.00;99.90;;;;;;5085000;27;36940;-56
2022/06/10 10:57:15;;;;;;;;;;;18.00;99.90;;;;;;5086321;27;38566;-56
2022/06/10 10:59:44;;;;;;;;;;;18.00;99.90;;;;;;5086260;27;38009;-56
2022/06/10 11:02:32;;;;;;;;;;;18.00;99.90;;;;;;5085345;27;36999;-57
2022/06/10 11:05:19;;;;;;;;;;;17.90;99.90;;;;;;5088405;27;35941;-57
2022/06/10 11:07:47;;;;;;;;;;;18.00;99.90;;;;;;5087741;28;37459;-58
2022/06/10 11:10:18;;;;;;;;;;;18.00;99.90;;;;;;5087630;27;36615;-57
2022/06/10 11:12:46;;;;;;;;;;;18.10;99.90;;;;;;5088350;27;37161;-57
2022/06/10 11:15:16;;;;;;;;;;;18.10;99.90;;;;;;5088153;27;35556;-57
2022/06/10 11:17:44;;;;;;;;;;;18.10;99.90;;;;;;5087790;27;37685;-57
2022/06/10 11:20:22;;;;;;;;;;;18.10;99.90;;;;;;5088835;27;36688;-57
2022/06/10 11:22:49;;;;;;;;;;;18.20;99.90;;;;;;5087087;27;36147;-56
2022/06/10 11:25:24;;;;;;;;;;;18.10;99.90;;;;;;5088144;27;36687;-57
2022/06/10 11:28:00;;;;;;;;;;;18.10;99.90;;;;;;5087660;27;38603;-58
2022/06/10 11:30:33;;;;;;;;;;;18.20;99.90;;;;;;5087716;27;37834;-56
2022/06/10 11:33:03;;;;;;;;;;;18.40;99.90;;;;;;5087206;28;35925;-57
2022/06/10 11:35:32;;;;;;;;;;;18.70;99.90;;;;;;5087342;27;36933;-56
2022/06/10 11:38:01;;;;;;;;;;;18.80;99.90;;;;;;5087042;27;38601;-56
2022/06/10 11:40:29;;;;;;;;;;;18.90;99.90;;;;;;5087026;27;37785;-57
2022/06/10 11:43:01;;;;;;;;;;;19.00;99.90;;;;;;5087528;27;37368;-58
2022/06/10 11:45:31;;;;;;;;;;;19.00;99.90;;;;;;5087394;28;36488;-57
2022/06/10 11:48:00;;;;;;;;;;;19.00;99.90;;;;;;5085249;27;36830;-57
2022/06/10 11:50:32;;;;;;;;;;;19.00;99.90;;;;;;5087061;27;38399;-57
2022/06/10 11:53:02;;;;;;;;;;;19.00;99.90;;;;;;5086520;27;39391;-57
2022/06/10 11:55:30;;;;;;;;;;;19.00;99.90;;;;;;5085939;27;35201;-57
2022/06/10 12:00:47;;;;;;;;;;;19.00;99.90;;;;;;5087255;28;40234;-58
2022/06/10 12:03:16;;;;;;;;;;;19.10;99.90;;;;;;5086490;27;37162;-58
2022/06/10 12:05:50;;;;;;;;;;;19.20;99.90;;;;;;5087293;28;35794;-58
2022/06/10 12:08:24;;;;;;;;;;;19.30;99.90;;;;;;5086784;27;39791;-58
2022/06/10 12:10:55;;;;;;;;;;;19.40;99.90;;;;;;5087115;27;39070;-58
2022/06/10 12:13:23;;;;;;;;;;;19.40;99.90;;;;;;5086434;28;37053;-58
2022/06/10 12:15:52;;;;;;;;;;;19.30;99.90;;;;;;5085750;27;38251;-58
2022/06/10 12:18:19;;;;;;;;;;;19.30;99.90;;;;;;5085953;27;37190;-58
2022/06/10 12:20:49;;;;;;;;;;;19.20;99.90;;;;;;5086281;28;39379;-58
2022/06/10 12:23:19;;;;;;;;;;;19.20;99.90;;;;;;5086424;28;38596;-57
2022/06/10 12:25:51;;;;;;;;;;;19.20;99.90;;;;;;5086531;27;37064;-57
2022/06/10 12:28:25;;;;;;;;;;;19.10;99.90;;;;;;5086844;27;39663;-57
2022/06/10 12:31:00;;;;;;;;;;;19.00;99.90;;;;;;5086662;27;37765;-57
2022/06/10 12:33:32;;;;;;;;;;;19.00;99.90;;;;;;5087051;27;37023;-58
2022/06/10 12:36:02;;;;;;;;;;;18.90;99.90;;;;;;5087339;27;35650;-58
2022/06/10 12:38:33;;;;;;;;;;;18.90;99.90;;;;;;5087327;27;36465;-58
2022/06/10 12:41:05;;;;;;;;;;;18.80;99.90;;;;;;5086685;28;38585;-57
2022/06/10 12:43:34;;;;;;;;;;;18.90;99.90;;;;;;5087144;27;37818;-58
2022/06/10 12:46:03;;;;;;;;;;;19.00;99.90;;;;;;5087036;27;37707;-58
2022/06/10 12:48:32;;;;;;;;;;;19.00;99.90;;;;;;5086279;27;39272;-57
2022/06/10 12:51:03;;;;;;;;;;;19.10;99.90;;;;;;5085688;27;38651;-57
2022/06/10 12:53:42;;;;;;;;;;;19.10;99.90;;;;;;5085165;28;37136;-58
2022/06/10 12:56:20;;;;;;;;;;;19.10;99.90;;;;;;5085850;27;36935;-58
2022/06/10 12:58:49;;;;;;;;;;;19.10;99.90;;;;;;5086777;27;37166;-58
2022/06/10 13:01:20;;;;;;;;;;;19.00;99.90;;;;;;5086556;27;38031;-58
2022/06/10 13:03:48;;;;;;;;;;;19.00;99.90;;;;;;5086692;27;36176;-58
2022/06/10 13:06:49;;;;;;;;;;;19.10;99.90;;;;;;5090833;27;37518;-58
2022/06/10 13:09:24;;;;;;;;;;;19.10;99.90;;;;;;5090998;27;38086;-57
2022/06/10 13:11:52;;;;;;;;;;;19.10;99.90;;;;;;5090970;27;38117;-58
2022/06/10 13:14:36;;;;;;;;;;;19.20;99.90;;;;;;5089684;27;37340;-57
2022/06/10 13:17:07;;;;;;;;;;;19.20;99.90;;;;;;5090721;27;36161;-57
2022/06/10 13:19:36;;;;;;;;;;;19.20;99.90;;;;;;5090984;27;37937;-57
2022/06/10 13:22:21;;;;;;;;;;;19.30;99.90;;;;;;5090559;27;38402;-57
2022/06/10 13:25:03;;;;;;;;;;;19.40;99.90;;;;;;5091550;27;36930;-57
2022/06/10 13:27:34;;;;;;;;;;;19.50;99.90;;;;;;5091665;27;36889;-57
2022/06/10 13:30:03;;;;;;;;;;;19.60;99.90;;;;;;5092373;27;38048;-57
2022/06/10 13:32:30;;;;;;;;;;;19.70;99.90;;;;;;5091839;27;37828;-57
2022/06/10 13:34:59;;;;;;;;;;;19.80;99.90;;;;;;5091345;27;35836;-57
2022/06/10 13:37:29;;;;;;;;;;;19.80;99.90;;;;;;5091806;28;35263;-57
2022/06/10 13:39:57;;;;;;;;;;;19.90;99.90;;;;;;5091329;27;37438;-57
2022/06/10 13:42:27;;;;;;;;;;;19.90;99.90;;;;;;5091737;28;38880;-57
2022/06/10 13:44:56;;;;;;;;;;;20.00;99.90;;;;;;5091082;28;37124;-57
2022/06/10 13:47:25;;;;;;;;;;;20.00;99.90;;;;;;5091695;28;36414;-57
2022/06/10 13:50:11;;;;;;;;;;;20.00;99.90;;;;;;5089863;27;37924;-57
2022/06/10 13:52:39;;;;;;;;;;;20.00;99.90;;;;;;5090036;28;37881;-57
2022/06/10 13:55:20;;;;;;;;;;;20.00;99.90;;;;;;5089892;27;40414;-58
2022/06/10 13:57:53;;;;;;;;;;;20.10;99.90;;;;;;5090750;27;37118;-57
2022/06/10 14:00:24;;;;;;;;;;;20.10;99.90;;;;;;5090095;27;40507;-58
2022/06/10 14:02:53;;;;;;;;;;;20.10;99.90;;;;;;5091250;27;38483;-57
2022/06/10 14:05:22;;;;;;;;;;;20.10;99.90;;;;;;5091061;28;37077;-57
2022/06/10 14:07:49;;;;;;;;;;;20.10;99.90;;;;;;5091604;27;39614;-56
2022/06/10 14:10:20;;;;;;;;;;;20.10;99.90;;;;;;5090043;27;38393;-57
2022/06/10 14:12:58;;;;;;;;;;;20.10;99.90;;;;;;5091603;28;37763;-57
2022/06/10 14:15:28;;;;;;;;;;;20.10;99.90;;;;;;5090495;27;37584;-57
2022/06/10 14:17:56;;;;;;;;;;;20.00;99.90;;;;;;5091757;27;37621;-57
2022/06/10 14:20:25;;;;;;;;;;;20.00;99.90;;;;;;5091330;27;38876;-57
2022/06/10 14:23:00;;;;;;;;;;;20.00;99.90;;;;;;5091315;27;37456;-56
2022/06/10 14:25:27;;;;;;;;;;;20.00;99.90;;;;;;5091455;27;36036;-57
2022/06/10 14:28:03;;;;;;;;;;;19.90;99.90;;;;;;5091203;27;38196;-57
2022/06/10 14:30:43;;;;;;;;;;;19.90;99.90;;;;;;5091130;27;37944;-58
2022/06/10 14:33:15;;;;;;;;;;;19.90;99.90;;;;;;5091198;28;37531;-57
2022/06/10 14:35:43;;;;;;;;;;;20.00;99.90;;;;;;5090427;27;36931;-57
2022/06/10 14:38:19;;;;;;;;;;;20.00;99.90;;;;;;5091471;27;37380;-57
2022/06/10 14:40:53;;;;;;;;;;;20.10;99.90;;;;;;5091638;27;39188;-58
2022/06/10 14:43:22;;;;;;;;;;;20.10;99.90;;;;;;5090665;28;38798;-58